sensor_id;sensor_type;location;lat;lon;timestamp;pressure;altitude;pressure_sealevel;temperature;humidity
37716;BME280;23562;50.540;12.504;2022-07-11T00:02:24;95131.97;;;12.28;100.00
37716;BME280;23562;50.540;12.504;2022-07-11T00:04:50;95150.66;;;12.46;100.00
37716;BME280;23562;50.540;12.504;2022-07-11T00:07:15;95141.44;;;12.31;100.00
37716;BME280;23562;50.540;12.504;2022-07-11T00:09:41;95142.00;;;12.25;100.00
37716;BME280;23562;50.540;12.504;2022-07-11T00:12:06;95127.91;;;12.15;100.00
37716;BME280;23562;50.540;12.504;2022-07-11T00:22:08;95060.38;;;12.01;100.00
37716;BME280;23562;50.540;12.504;2022-07-11T00:38:56;95041.66;;;11.65;100.00
37716;BME280;23562;50.540;12.504;2022-07-11T00:41:58;95018.25;;;11.50;100.00
37716;BME280;23562;50.540;12.504;2022-07-11T00:45:17;95047.81;;;11.75;100.00
37716;BME280;23562;50.540;12.504;2022-07-11T00:48:06;95020.47;;;11.55;100.00
37716;BME280;23562;50.540;12.504;2022-07-11T00:50:43;95006.00;;;11.40;100.00
37716;BME280;23562;50.540;12.504;2022-07-11T00:53:08;95119.00;;;12.16;100.00
37716;BME280;23562;50.540;12.504;2022-07-11T00:55:40;95023.56;;;11.60;100.00
37716;BME280;23562;50.540;12.504;2022-07-11T00:58:36;95109.66;;;12.12;100.00
37716;BME280;23562;50.540;12.504;2022-07-11T01:01:14;95065.63;;;11.82;100.00
37716;BME280;23562;50.540;12.504;2022-07-11T01:07:29;95118.59;;;12.20;100.00
37716;BME280;23562;50.540;12.504;2022-07-11T01:10:00;95008.75;;;11.48;100.00
37716;BME280;23562;50.540;12.504;2022-07-11T01:12:43;95024.38;;;11.60;100.00
37716;BME280;23562;50.540;12.504;2022-07-11T01:22:44;95117.31;;;12.15;100.00
37716;BME280;23562;50.540;12.504;2022-07-11T01:32:41;94985.66;;;11.40;100.00
37716;BME280;23562;50.540;12.504;2022-07-11T01:42:42;95099.66;;;12.15;100.00
37716;BME280;23562;50.540;12.504;2022-07-11T01:49:07;95070.09;;;11.82;100.00
37716;BME280;23562;50.540;12.504;2022-07-11T01:55:36;95009.91;;;11.45;100.00
37716;BME280;23562;50.540;12.504;2022-07-11T02:02:10;94989.56;;;11.36;100.00
37716;BME280;23562;50.540;12.504;2022-07-11T02:25:23;94999.44;;;11.53;100.00
37716;BME280;23562;50.540;12.504;2022-07-11T02:27:58;95048.38;;;11.88;100.00
37716;BME280;23562;50.540;12.504;2022-07-11T02:30:56;95092.38;;;12.08;100.00
37716;BME280;23562;50.540;12.504;2022-07-11T02:33:26;95030.81;;;11.68;100.00
37716;BME280;23562;50.540;12.504;2022-07-11T02:35:59;94996.81;;;11.53;100.00
37716;BME280;23562;50.540;12.504;2022-07-11T02:38:35;94997.06;;;11.31;100.00
37716;BME280;23562;50.540;12.504;2022-07-11T02:41:29;95032.06;;;11.64;100.00
37716;BME280;23562;50.540;12.504;2022-07-11T02:44:08;94998.72;;;11.32;100.00
37716;BME280;23562;50.540;12.504;2022-07-11T02:46:39;94998.19;;;11.38;100.00
37716;BME280;23562;50.540;12.504;2022-07-11T03:03:04;95046.91;;;11.55;100.00
37716;BME280;23562;50.540;12.504;2022-07-11T03:05:50;94987.56;;;11.10;100.00
37716;BME280;23562;50.540;12.504;2022-07-11T03:08:40;95087.75;;;11.72;100.00
37716;BME280;23562;50.540;12.504;2022-07-11T03:11:48;95019.03;;;11.22;100.00
37716;BME280;23562;50.540;12.504;2022-07-11T03:14:49;94980.00;;;10.96;100.00
37716;BME280;23562;50.540;12.504;2022-07-11T03:21:08;95005.34;;;11.08;100.00
37716;BME280;23562;50.540;12.504;2022-07-11T03:27:13;95059.66;;;11.40;100.00
37716;BME280;23562;50.540;12.504;2022-07-11T03:29:38;95061.09;;;11.54;100.00
37716;BME280;23562;50.540;12.504;2022-07-11T03:32:27;95012.34;;;11.18;100.00
37716;BME280;23562;50.540;12.504;2022-07-11T03:34:55;95012.16;;;11.10;100.00
37716;BME280;23562;50.540;12.504;2022-07-11T03:38:03;95099.44;;;11.79;100.00
37716;BME280;23562;50.540;12.504;2022-07-11T03:40:31;94993.41;;;11.13;100.00
37716;BME280;23562;50.540;12.504;2022-07-11T03:42:59;95074.47;;;11.52;100.00
37716;BME280;23562;50.540;12.504;2022-07-11T03:45:42;95011.47;;;11.08;100.00
37716;BME280;23562;50.540;12.504;2022-07-11T03:48:28;95021.75;;;11.02;100.00
37716;BME280;23562;50.540;12.504;2022-07-11T03:50:53;95056.03;;;11.22;100.00
37716;BME280;23562;50.540;12.504;2022-07-11T03:53:26;95047.41;;;11.20;100.00
37716;BME280;23562;50.540;12.504;2022-07-11T03:55:57;95010.09;;;11.04;100.00
37716;BME280;23562;50.540;12.504;2022-07-11T04:01:29;95073.06;;;11.48;100.00
37716;BME280;23562;50.540;12.504;2022-07-11T04:03:57;95032.78;;;11.16;100.00
37716;BME280;23562;50.540;12.504;2022-07-11T04:06:26;95005.03;;;11.01;100.00
37716;BME280;23562;50.540;12.504;2022-07-11T04:09:07;95011.69;;;10.96;100.00
37716;BME280;23562;50.540;12.504;2022-07-11T04:14:52;95016.50;;;11.11;100.00
37716;BME280;23562;50.540;12.504;2022-07-11T04:21:07;95061.34;;;11.41;100.00
37716;BME280;23562;50.540;12.504;2022-07-11T04:23:39;95052.72;;;11.39;100.00
37716;BME280;23562;50.540;12.504;2022-07-11T04:26:16;95030.03;;;11.27;100.00
37716;BME280;23562;50.540;12.504;2022-07-11T04:28:44;95028.44;;;11.15;100.00
37716;BME280;23562;50.540;12.504;2022-07-11T04:31:19;95022.03;;;11.08;100.00
37716;BME280;23562;50.540;12.504;2022-07-11T04:33:44;95080.00;;;11.49;100.00
37716;BME280;23562;50.540;12.504;2022-07-11T04:36:47;95024.56;;;11.19;100.00
37716;BME280;23562;50.540;12.504;2022-07-11T04:39:21;95047.97;;;11.33;100.00
37716;BME280;23562;50.540;12.504;2022-07-11T04:41:54;95036.84;;;11.30;100.00
37716;BME280;23562;50.540;12.504;2022-07-11T04:44:40;95012.47;;;11.17;100.00
37716;BME280;23562;50.540;12.504;2022-07-11T04:56:56;95026.00;;;11.42;100.00
37716;BME280;23562;50.540;12.504;2022-07-11T05:06:29;95133.78;;;12.28;100.00
37716;BME280;23562;50.540;12.504;2022-07-11T05:08:54;95042.25;;;11.78;100.00
37716;BME280;23562;50.540;12.504;2022-07-11T05:11:22;95037.78;;;11.69;100.00
37716;BME280;23562;50.540;12.504;2022-07-11T05:13:51;95045.28;;;11.64;100.00
37716;BME280;23562;50.540;12.504;2022-07-11T05:16:21;95074.69;;;11.89;100.00
37716;BME280;23562;50.540;12.504;2022-07-11T05:19:15;95022.44;;;11.63;100.00
37716;BME280;23562;50.540;12.504;2022-07-11T05:21:48;95055.63;;;11.76;100.00
37716;BME280;23562;50.540;12.504;2022-07-11T05:24:20;95050.31;;;11.67;100.00
37716;BME280;23562;50.540;12.504;2022-07-11T05:26:47;95135.72;;;12.26;100.00
37716;BME280;23562;50.540;12.504;2022-07-11T05:29:15;95110.53;;;12.12;100.00
37716;BME280;23562;50.540;12.504;2022-07-11T05:31:51;95099.38;;;12.09;100.00
37716;BME280;23562;50.540;12.504;2022-07-11T05:38:23;95059.81;;;12.17;100.00
37716;BME280;23562;50.540;12.504;2022-07-11T05:41:23;95050.88;;;11.99;100.00
37716;BME280;23562;50.540;12.504;2022-07-11T05:44:39;95158.72;;;12.63;100.00
37716;BME280;23562;50.540;12.504;2022-07-11T05:48:07;95164.03;;;12.73;100.00
37716;BME280;23562;50.540;12.504;2022-07-11T05:51:18;95043.50;;;12.02;100.00
37716;BME280;23562;50.540;12.504;2022-07-11T05:54:18;95075.69;;;12.26;100.00
37716;BME280;23562;50.540;12.504;2022-07-11T05:57:23;95084.03;;;12.31;100.00
37716;BME280;23562;50.540;12.504;2022-07-11T06:00:08;95080.69;;;12.20;100.00
37716;BME280;23562;50.540;12.504;2022-07-11T06:03:17;95115.78;;;12.50;100.00
37716;BME280;23562;50.540;12.504;2022-07-11T06:05:45;95060.63;;;12.27;100.00
37716;BME280;23562;50.540;12.504;2022-07-11T06:08:13;95133.19;;;12.72;100.00
37716;BME280;23562;50.540;12.504;2022-07-11T06:10:57;95125.78;;;12.85;100.00
37716;BME280;23562;50.540;12.504;2022-07-11T06:13:22;95154.75;;;13.15;100.00
37716;BME280;23562;50.540;12.504;2022-07-11T06:15:47;95154.19;;;13.21;100.00
37716;BME280;23562;50.540;12.504;2022-07-11T06:18:12;95144.97;;;13.25;100.00
37716;BME280;23562;50.540;12.504;2022-07-11T06:20:38;95155.53;;;13.35;100.00
37716;BME280;23562;50.540;12.504;2022-07-11T06:23:03;95152.75;;;13.36;100.00
37716;BME280;23562;50.540;12.504;2022-07-11T06:25:30;95095.66;;;13.05;100.00
37716;BME280;23562;50.540;12.504;2022-07-11T06:27:56;95142.97;;;13.37;100.00
37716;BME280;23562;50.540;12.504;2022-07-11T06:30:21;95149.81;;;13.39;100.00
37716;BME280;23562;50.540;12.504;2022-07-11T06:32:46;95159.69;;;13.47;100.00
37716;BME280;23562;50.540;12.504;2022-07-11T06:35:18;95162.03;;;13.59;100.00
37716;BME280;23562;50.540;12.504;2022-07-11T06:37:44;95109.19;;;13.39;100.00
37716;BME280;23562;50.540;12.504;2022-07-11T06:40:09;95157.78;;;13.67;100.00
37716;BME280;23562;50.540;12.504;2022-07-11T06:42:36;95128.09;;;13.53;100.00
37716;BME280;23562;50.540;12.504;2022-07-11T06:45:01;95150.91;;;13.74;100.00
37716;BME280;23562;50.540;12.504;2022-07-11T06:47:27;95172.09;;;13.83;100.00
37716;BME280;23562;50.540;12.504;2022-07-11T06:49:52;95143.38;;;13.69;100.00
37716;BME280;23562;50.540;12.504;2022-07-11T06:52:17;95153.06;;;13.88;100.00
37716;BME280;23562;50.540;12.504;2022-07-11T06:54:42;95171.47;;;13.99;100.00
37716;BME280;23562;50.540;12.504;2022-07-11T06:57:07;95151.66;;;14.11;100.00
37716;BME280;23562;50.540;12.504;2022-07-11T06:59:33;95175.50;;;14.30;100.00
37716;BME280;23562;50.540;12.504;2022-07-11T07:01:58;95142.75;;;14.12;100.00
37716;BME280;23562;50.540;12.504;2022-07-11T07:04:24;95145.03;;;14.24;100.00
37716;BME280;23562;50.540;12.504;2022-07-11T07:06:49;95162.28;;;14.38;100.00
37716;BME280;23562;50.540;12.504;2022-07-11T07:09:14;95163.06;;;14.48;100.00
37716;BME280;23562;50.540;12.504;2022-07-11T07:11:39;95127.97;;;14.27;100.00
37716;BME280;23562;50.540;12.504;2022-07-11T07:14:05;95162.97;;;14.57;100.00
37716;BME280;23562;50.540;12.504;2022-07-11T07:16:30;95179.44;;;14.61;100.00
37716;BME280;23562;50.540;12.504;2022-07-11T07:18:55;95152.28;;;14.67;100.00
37716;BME280;23562;50.540;12.504;2022-07-11T07:21:20;95161.06;;;14.85;100.00
37716;BME280;23562;50.540;12.504;2022-07-11T07:23:46;95158.03;;;14.80;100.00
37716;BME280;23562;50.540;12.504;2022-07-11T07:26:11;95180.28;;;14.79;100.00
37716;BME280;23562;50.540;12.504;2022-07-11T07:28:36;95162.31;;;14.73;100.00
37716;BME280;23562;50.540;12.504;2022-07-11T07:31:03;95187.34;;;14.88;100.00
37716;BME280;23562;50.540;12.504;2022-07-11T07:33:29;95164.69;;;14.84;100.00
37716;BME280;23562;50.540;12.504;2022-07-11T07:35:54;95164.56;;;14.86;100.00
37716;BME280;23562;50.540;12.504;2022-07-11T07:38:20;95195.06;;;14.99;100.00
37716;BME280;23562;50.540;12.504;2022-07-11T07:40:45;95178.06;;;14.92;100.00
37716;BME280;23562;50.540;12.504;2022-07-11T07:43:10;95187.56;;;14.77;100.00
37716;BME280;23562;50.540;12.504;2022-07-11T07:45:35;95104.47;;;14.32;100.00
37716;BME280;23562;50.540;12.504;2022-07-11T07:48:01;95169.88;;;14.68;100.00
37716;BME280;23562;50.540;12.504;2022-07-11T07:50:26;95183.31;;;14.84;100.00
37716;BME280;23562;50.540;12.504;2022-07-11T07:52:51;95170.25;;;14.91;100.00
37716;BME280;23562;50.540;12.504;2022-07-11T07:55:16;95188.78;;;14.83;100.00
37716;BME280;23562;50.540;12.504;2022-07-11T07:57:43;95200.25;;;14.83;100.00
37716;BME280;23562;50.540;12.504;2022-07-11T08:00:08;95161.16;;;14.58;100.00
37716;BME280;23562;50.540;12.504;2022-07-11T08:02:52;95193.78;;;14.68;100.00
37716;BME280;23562;50.540;12.504;2022-07-11T08:05:18;95180.66;;;14.49;100.00
37716;BME280;23562;50.540;12.504;2022-07-11T08:07:43;95134.69;;;14.04;100.00
37716;BME280;23562;50.540;12.504;2022-07-11T08:10:09;95174.50;;;14.31;100.00
37716;BME280;23562;50.540;12.504;2022-07-11T08:12:34;95196.59;;;14.49;100.00
37716;BME280;23562;50.540;12.504;2022-07-11T08:14:59;95180.81;;;14.65;100.00
37716;BME280;23562;50.540;12.504;2022-07-11T08:17:25;95180.13;;;14.81;100.00
37716;BME280;23562;50.540;12.504;2022-07-11T08:19:50;95169.09;;;14.93;100.00
37716;BME280;23562;50.540;12.504;2022-07-11T08:22:15;95155.75;;;14.85;100.00
37716;BME280;23562;50.540;12.504;2022-07-11T08:24:41;95185.34;;;14.90;100.00
37716;BME280;23562;50.540;12.504;2022-07-11T08:27:06;95189.63;;;14.83;100.00
37716;BME280;23562;50.540;12.504;2022-07-11T08:29:31;95182.94;;;14.79;100.00
37716;BME280;23562;50.540;12.504;2022-07-11T08:31:56;95184.63;;;14.80;100.00
37716;BME280;23562;50.540;12.504;2022-07-11T08:34:22;95152.19;;;14.59;100.00
37716;BME280;23562;50.540;12.504;2022-07-11T08:36:47;95184.91;;;14.77;100.00
37716;BME280;23562;50.540;12.504;2022-07-11T08:39:12;95160.88;;;15.04;100.00
37716;BME280;23562;50.540;12.504;2022-07-11T08:41:43;95172.91;;;15.34;100.00
37716;BME280;23562;50.540;12.504;2022-07-11T08:44:11;95177.88;;;15.54;100.00
37716;BME280;23562;50.540;12.504;2022-07-11T08:46:37;95173.44;;;15.63;100.00
37716;BME280;23562;50.540;12.504;2022-07-11T08:49:04;95181.97;;;15.75;100.00
37716;BME280;23562;50.540;12.504;2022-07-11T08:51:29;95181.91;;;15.58;100.00
37716;BME280;23562;50.540;12.504;2022-07-11T08:53:55;95189.84;;;15.50;100.00
37716;BME280;23562;50.540;12.504;2022-07-11T08:56:21;95197.53;;;15.61;100.00
37716;BME280;23562;50.540;12.504;2022-07-11T08:58:48;95195.56;;;15.63;100.00
37716;BME280;23562;50.540;12.504;2022-07-11T09:01:19;95154.66;;;15.64;99.18
37716;BME280;23562;50.540;12.504;2022-07-11T09:03:45;95149.63;;;15.61;96.43
37716;BME280;23562;50.540;12.504;2022-07-11T09:06:11;95160.97;;;15.63;96.13
37716;BME280;23562;50.540;12.504;2022-07-11T09:08:37;95184.69;;;15.83;90.58
37716;BME280;23562;50.540;12.504;2022-07-11T09:11:04;95146.00;;;15.62;95.89
37716;BME280;23562;50.540;12.504;2022-07-11T09:13:30;95185.72;;;15.90;95.03
37716;BME280;23562;50.540;12.504;2022-07-11T09:16:07;95149.63;;;15.61;97.52
37716;BME280;23562;50.540;12.504;2022-07-11T09:23:55;95150.38;;;15.72;97.54
37716;BME280;23562;50.540;12.504;2022-07-11T09:26:41;95176.72;;;15.91;99.27
37716;BME280;23562;50.540;12.504;2022-07-11T09:31:43;95185.22;;;16.28;94.94
37716;BME280;23562;50.540;12.504;2022-07-11T09:34:16;95173.59;;;16.37;90.40
37716;BME280;23562;50.540;12.504;2022-07-11T09:36:48;95182.28;;;16.47;82.70
37716;BME280;23562;50.540;12.504;2022-07-11T09:39:21;95167.53;;;16.27;84.72
37716;BME280;23562;50.540;12.504;2022-07-11T09:41:48;95116.00;;;15.86;81.57
37716;BME280;23562;50.540;12.504;2022-07-11T09:44:28;95191.97;;;16.06;87.49
37716;BME280;23562;50.540;12.504;2022-07-11T09:46:54;95196.44;;;16.06;92.10
37716;BME280;23562;50.540;12.504;2022-07-11T09:49:38;95193.50;;;16.17;90.52
37716;BME280;23562;50.540;12.504;2022-07-11T09:52:14;95191.91;;;16.40;90.15
37716;BME280;23562;50.540;12.504;2022-07-11T09:54:53;95158.31;;;16.47;88.20
37716;BME280;23562;50.540;12.504;2022-07-11T09:57:28;95190.03;;;16.90;86.29
37716;BME280;23562;50.540;12.504;2022-07-11T09:59:54;95188.19;;;17.15;85.71
37716;BME280;23562;50.540;12.504;2022-07-11T10:02:19;95169.03;;;17.11;76.00
37716;BME280;23562;50.540;12.504;2022-07-11T10:04:45;95169.22;;;17.18;72.96
37716;BME280;23562;50.540;12.504;2022-07-11T10:07:10;95136.34;;;17.01;72.87
37716;BME280;23562;50.540;12.504;2022-07-11T10:09:35;95189.69;;;17.33;77.60
37716;BME280;23562;50.540;12.504;2022-07-11T10:12:01;95185.69;;;17.13;76.25
37716;BME280;23562;50.540;12.504;2022-07-11T10:14:26;95186.66;;;16.64;71.37
37716;BME280;23562;50.540;12.504;2022-07-11T10:17:01;95197.31;;;16.64;71.89
37716;BME280;23562;50.540;12.504;2022-07-11T10:22:44;95182.63;;;16.52;79.73
37716;BME280;23562;50.540;12.504;2022-07-11T10:25:24;95188.66;;;16.62;80.20
37716;BME280;23562;50.540;12.504;2022-07-11T10:28:13;95163.34;;;16.82;82.71
37716;BME280;23562;50.540;12.504;2022-07-11T10:30:48;95172.03;;;17.08;71.81
37716;BME280;23562;50.540;12.504;2022-07-11T10:33:15;95167.03;;;16.97;70.96
37716;BME280;23562;50.540;12.504;2022-07-11T10:35:46;95194.69;;;17.20;73.34
37716;BME280;23562;50.540;12.504;2022-07-11T10:38:12;95189.19;;;17.38;71.11
37716;BME280;23562;50.540;12.504;2022-07-11T10:40:51;95189.00;;;17.71;71.32
37716;BME280;23562;50.540;12.504;2022-07-11T10:46:05;95168.53;;;18.03;64.44
37716;BME280;23562;50.540;12.504;2022-07-11T10:48:33;95172.88;;;18.04;62.33
37716;BME280;23562;50.540;12.504;2022-07-11T10:51:22;95188.84;;;18.20;66.22
37716;BME280;23562;50.540;12.504;2022-07-11T10:53:50;95163.59;;;17.92;65.71
37716;BME280;23562;50.540;12.504;2022-07-11T10:56:33;95150.78;;;17.79;66.06
37716;BME280;23562;50.540;12.504;2022-07-11T10:59:16;95164.84;;;17.41;71.70
37716;BME280;23562;50.540;12.504;2022-07-11T11:02:10;95197.19;;;17.62;73.52
37716;BME280;23562;50.540;12.504;2022-07-11T11:04:47;95183.03;;;17.53;73.07
37716;BME280;23562;50.540;12.504;2022-07-11T11:09:55;95159.09;;;17.76;72.24
37716;BME280;23562;50.540;12.504;2022-07-11T11:12:20;95179.25;;;17.95;66.69
37716;BME280;23562;50.540;12.504;2022-07-11T11:18:40;95169.19;;;18.05;62.22
37716;BME280;23562;50.540;12.504;2022-07-11T11:23:36;95183.91;;;18.47;65.70
37716;BME280;23562;50.540;12.504;2022-07-11T11:26:13;95163.56;;;18.69;64.61
37716;BME280;23562;50.540;12.504;2022-07-11T11:28:58;95185.91;;;18.76;60.55
37716;BME280;23562;50.540;12.504;2022-07-11T11:31:24;95180.66;;;19.05;57.47
37716;BME280;23562;50.540;12.504;2022-07-11T11:33:50;95179.13;;;19.11;56.72
37716;BME280;23562;50.540;12.504;2022-07-11T11:36:17;95158.78;;;19.24;54.64
37716;BME280;23562;50.540;12.504;2022-07-11T11:38:44;95135.03;;;19.07;53.25
37716;BME280;23562;50.540;12.504;2022-07-11T11:41:10;95155.75;;;19.27;53.52
37716;BME280;23562;50.540;12.504;2022-07-11T11:43:38;95147.47;;;19.14;54.23
37716;BME280;23562;50.540;12.504;2022-07-11T11:46:07;95169.25;;;19.11;53.97
37716;BME280;23562;50.540;12.504;2022-07-11T11:48:34;95184.34;;;19.27;56.05
37716;BME280;23562;50.540;12.504;2022-07-11T11:51:07;95145.47;;;19.16;56.55
37716;BME280;23562;50.540;12.504;2022-07-11T11:53:37;95175.28;;;19.50;56.35
37716;BME280;23562;50.540;12.504;2022-07-11T11:56:25;95180.75;;;19.42;56.38
37716;BME280;23562;50.540;12.504;2022-07-11T11:58:55;95187.94;;;19.19;53.30
37716;BME280;23562;50.540;12.504;2022-07-11T12:01:25;95149.41;;;18.83;53.72
37716;BME280;23562;50.540;12.504;2022-07-11T12:03:54;95177.53;;;19.02;53.56
37716;BME280;23562;50.540;12.504;2022-07-11T12:06:22;95168.69;;;19.01;51.64
37716;BME280;23562;50.540;12.504;2022-07-11T12:08:48;95175.19;;;19.21;49.44
37716;BME280;23562;50.540;12.504;2022-07-11T12:11:14;95146.41;;;19.23;50.82
37716;BME280;23562;50.540;12.504;2022-07-11T12:13:41;95170.53;;;19.60;49.29
37716;BME280;23562;50.540;12.504;2022-07-11T12:34:09;95080.00;;;20.00;47.51
37716;BME280;23562;50.540;12.504;2022-07-11T12:44:31;95076.41;;;20.43;44.81
37716;BME280;23562;50.540;12.504;2022-07-11T12:47:36;95122.81;;;20.58;45.31
37716;BME280;23562;50.540;12.504;2022-07-11T12:50:33;95080.50;;;20.10;45.07
37716;BME280;23562;50.540;12.504;2022-07-11T12:53:16;95121.81;;;20.44;44.77
37716;BME280;23562;50.540;12.504;2022-07-11T13:06:01;95185.88;;;21.25;44.97
37716;BME280;23562;50.540;12.504;2022-07-11T13:08:41;95151.69;;;20.98;45.13
37716;BME280;23562;50.540;12.504;2022-07-11T13:11:31;95143.09;;;20.67;44.69
37716;BME280;23562;50.540;12.504;2022-07-11T13:14:01;95127.16;;;20.80;45.89
37716;BME280;23562;50.540;12.504;2022-07-11T13:16:26;95161.94;;;21.30;44.98
37716;BME280;23562;50.540;12.504;2022-07-11T13:25:38;95111.56;;;20.90;44.77
37716;BME280;23562;50.540;12.504;2022-07-11T13:28:04;95103.47;;;21.26;43.19
37716;BME280;23562;50.540;12.504;2022-07-11T13:30:33;95074.16;;;21.58;43.44
37716;BME280;23562;50.540;12.504;2022-07-11T13:33:01;95109.44;;;21.55;40.51
37716;BME280;23562;50.540;12.504;2022-07-11T13:35:56;95078.50;;;21.32;41.52
37716;BME280;23562;50.540;12.504;2022-07-11T13:38:27;95066.34;;;21.08;42.49
37716;BME280;23562;50.540;12.504;2022-07-11T13:44:15;95082.41;;;21.29;41.09
37716;BME280;23562;50.540;12.504;2022-07-11T13:50:02;95085.47;;;21.82;41.60
37716;BME280;23562;50.540;12.504;2022-07-11T13:52:30;95096.13;;;21.68;40.28
37716;BME280;23562;50.540;12.504;2022-07-11T13:54:56;95088.19;;;21.26;39.61
37716;BME280;23562;50.540;12.504;2022-07-11T14:00:13;95157.56;;;22.06;39.49
37716;BME280;23562;50.540;12.504;2022-07-11T14:02:42;95101.03;;;21.58;40.10
37716;BME280;23562;50.540;12.504;2022-07-11T14:05:15;95131.59;;;21.57;40.10
37716;BME280;23562;50.540;12.504;2022-07-11T14:08:04;95103.00;;;21.77;41.19
37716;BME280;23562;50.540;12.504;2022-07-11T14:13:54;95147.94;;;22.65;38.81
37716;BME280;23562;50.540;12.504;2022-07-11T14:16:40;95168.81;;;23.23;37.72
37716;BME280;23562;50.540;12.504;2022-07-11T14:19:19;95087.28;;;22.09;36.70
37716;BME280;23562;50.540;12.504;2022-07-11T14:22:32;95132.44;;;22.20;38.72
37716;BME280;23562;50.540;12.504;2022-07-11T14:28:31;95141.91;;;23.89;37.48
37716;BME280;23562;50.540;12.504;2022-07-11T14:30:58;95148.16;;;23.76;35.77
37716;BME280;23562;50.540;12.504;2022-07-11T14:33:23;95156.28;;;22.83;36.54
37716;BME280;23562;50.540;12.504;2022-07-11T14:35:49;95150.72;;;22.91;35.91
37716;BME280;23562;50.540;12.504;2022-07-11T14:38:15;95151.94;;;22.82;38.04
37716;BME280;23562;50.540;12.504;2022-07-11T14:40:41;95171.84;;;22.40;37.36
37716;BME280;23562;50.540;12.504;2022-07-11T14:43:45;95159.78;;;22.30;37.48
37716;BME280;23562;50.540;12.504;2022-07-11T14:46:12;95167.34;;;22.54;37.54
37716;BME280;23562;50.540;12.504;2022-07-11T14:48:37;95161.06;;;22.34;36.75
37716;BME280;23562;50.540;12.504;2022-07-11T14:51:03;95172.50;;;22.49;37.04
37716;BME280;23562;50.540;12.504;2022-07-11T14:53:29;95148.03;;;22.91;36.41
37716;BME280;23562;50.540;12.504;2022-07-11T14:55:56;95153.88;;;23.14;37.01
37716;BME280;23562;50.540;12.504;2022-07-11T14:58:22;95157.25;;;23.29;36.75
37716;BME280;23562;50.540;12.504;2022-07-11T15:00:48;95167.19;;;23.35;37.57
37716;BME280;23562;50.540;12.504;2022-07-11T15:03:13;95158.09;;;23.36;37.51
37716;BME280;23562;50.540;12.504;2022-07-11T15:05:58;95154.72;;;23.15;36.97
37716;BME280;23562;50.540;12.504;2022-07-11T15:08:24;95156.97;;;22.92;36.71
37716;BME280;23562;50.540;12.504;2022-07-11T15:11:08;95162.34;;;22.51;37.35
37716;BME280;23562;50.540;12.504;2022-07-11T15:13:52;95152.69;;;22.16;38.15
37716;BME280;23562;50.540;12.504;2022-07-11T15:16:18;95150.63;;;22.18;38.45
37716;BME280;23562;50.540;12.504;2022-07-11T15:18:43;95176.13;;;22.69;38.05
37716;BME280;23562;50.540;12.504;2022-07-11T15:21:08;95164.25;;;23.17;37.34
37716;BME280;23562;50.540;12.504;2022-07-11T15:23:34;95172.63;;;23.42;37.03
37716;BME280;23562;50.540;12.504;2022-07-11T15:25:59;95162.34;;;22.98;37.39
37716;BME280;23562;50.540;12.504;2022-07-11T15:28:25;95160.31;;;22.53;38.83
37716;BME280;23562;50.540;12.504;2022-07-11T15:30:50;95176.94;;;22.63;37.96
37716;BME280;23562;50.540;12.504;2022-07-11T15:33:16;95156.75;;;22.05;38.46
37716;BME280;23562;50.540;12.504;2022-07-11T15:35:41;95169.03;;;22.55;38.16
37716;BME280;23562;50.540;12.504;2022-07-11T15:38:07;95157.56;;;22.87;37.12
37716;BME280;23562;50.540;12.504;2022-07-11T15:43:54;95161.94;;;22.95;38.07
37716;BME280;23562;50.540;12.504;2022-07-11T15:46:19;95164.13;;;23.58;37.36
37716;BME280;23562;50.540;12.504;2022-07-11T15:48:45;95158.53;;;23.59;37.75
37716;BME280;23562;50.540;12.504;2022-07-11T15:51:28;95157.25;;;23.29;37.03
37716;BME280;23562;50.540;12.504;2022-07-11T15:56:59;95085.94;;;23.64;36.30
37716;BME280;23562;50.540;12.504;2022-07-11T15:59:25;95140.81;;;24.86;35.13
37716;BME280;23562;50.540;12.504;2022-07-11T16:01:50;95082.50;;;24.28;35.22
37716;BME280;23562;50.540;12.504;2022-07-11T16:04:15;95116.94;;;25.95;34.54
37716;BME280;23562;50.540;12.504;2022-07-11T16:06:40;95134.00;;;26.74;33.36
37716;BME280;23562;50.540;12.504;2022-07-11T16:09:06;95136.63;;;27.81;32.52
37716;BME280;23562;50.540;12.504;2022-07-11T16:11:31;95126.00;;;28.37;30.75
37716;BME280;23562;50.540;12.504;2022-07-11T16:14:12;95091.16;;;28.97;28.76
37716;BME280;23562;50.540;12.504;2022-07-11T16:16:38;95128.28;;;30.09;28.44
37716;BME280;23562;50.540;12.504;2022-07-11T16:19:08;95090.31;;;30.03;27.86
37716;BME280;23562;50.540;12.504;2022-07-11T16:21:47;95127.22;;;31.08;27.01
37716;BME280;23562;50.540;12.504;2022-07-11T16:24:22;95092.06;;;30.47;27.35
37716;BME280;23562;50.540;12.504;2022-07-11T16:26:47;95146.38;;;31.13;26.75
37716;BME280;23562;50.540;12.504;2022-07-11T16:39:21;95081.22;;;29.47;27.49
37716;BME280;23562;50.540;12.504;2022-07-11T16:49:16;95156.25;;;25.97;32.90
37716;BME280;23562;50.540;12.504;2022-07-11T16:55:54;95080.06;;;23.94;37.14
37716;BME280;23562;50.540;12.504;2022-07-11T16:58:31;95085.81;;;24.30;36.15
37716;BME280;23562;50.540;12.504;2022-07-11T17:01:36;95146.88;;;24.11;38.02
37716;BME280;23562;50.540;12.504;2022-07-11T17:10:43;95175.09;;;23.82;38.68
37716;BME280;23562;50.540;12.504;2022-07-11T17:13:24;95073.03;;;22.81;39.39
37716;BME280;23562;50.540;12.504;2022-07-11T17:15:53;95127.16;;;22.46;41.04
37716;BME280;23562;50.540;12.504;2022-07-11T17:18:33;95135.94;;;22.61;41.94
37716;BME280;23562;50.540;12.504;2022-07-11T17:23:55;95126.00;;;22.14;42.66
37716;BME280;23562;50.540;12.504;2022-07-11T17:26:31;95090.19;;;22.07;42.62